Smithers Airport
CYYD : now visible

Airfield :











YOU CAN JOIN US ON...

 
LOGIN :

Register | Disclaimer

   EN    FR    IT 

 









Legend :    VFR   Marginal VFR   IFR   Intensive IFR   Very Intensive IFR
Visi :
Ceiling :
>= 8 km
>= 3000ft
5 to 8 km
1000 to 3000 ft
1500m to 5 km
500 to 1000 ft
800 to 1500m
200 to 500 ft
< 800m
< 200 ft
Symbols :   Thunderstorms  Fog  Heavy snow  Heavy precipitations  Wind > 20 kt






- Airport Elevation : 1712 ft
- IATA code : YYD


CYYD - Smithers

CURRENT METAR :
  • 220200Z 35003KT 330V130 15SM FEW004 SCT025 BKN060 M05/M06 A2949 RMK SF2SC2SC2 SLP013

EXPIRED METARs :
  • 220100Z VRB02KT 15SM FEW004 SCT025 BKN060 M04/M04 A2948 RMK SF2SC2SC2 SLP009
  • 220000Z 04004KT 020V160 15SM FEW004 SCT025 BKN050 M04/M05 A2945 RMK SF2SC2SC2 SLP000

TAF TAF CYYD
Valid from the 22 at 01:00 until the 22 at 06:00 UTC


220038Z 2201/2206 VRB03KT P6SM SCT020 BKN060
TEMPO 2201/2203 2SM -SN OVC020
FM220300 VRB03KT P6SM SCT030 BKN080
TEMPO 2203/2206 3SM -SN BKN030 OVC080 RMK NXT FCST WILL BE ISSUED AT 221345Z



MET'MAP, your aeronautical weather chart ! - Copyright ORBIFLY December 2007 - Disclaimer

ORBIFLY MET'MAP TEAM :

Programming & Development : Alexandra Zaïnal
Concept & original design : Baudouin d'Aumeries
Assistance for programming : Marc-Olivier Méhu
Technical & hardware support : Manuel Goepfert

Contact : metmap@orbifly.com




SOURCES & CREDITS :

   NOAA       Earth
Advisory